• Join FlightAware (Why Join?)
  • Login
  • US Flag 
06:35PM EDT


 

Airport Tracker/Info


-or-


 

Live Flight TrackerFlight Track Log ✈ N2213W ✈ 25-09-2013 ✈ KMTW - KMSN

Flight Track Log - Related Links

Times and Time Zones

All times are in EDT time to prevent confusion due to time zone crossing. See the N2213W flight status page for this flight to view local times or setup timezone preferences in your user account.

Time Position Orientation Groundspeed Altitude Reporting Facility
EDT Latitude Longitude Course Direction KTS MPH feet Rate Location/Type
02:07PM 44.1333 -87.7833 230° Southwest 114 131 3,200  Level KMKE
02:08PM 44.1000 -87.8333 227° Southwest 119 137 3,900 480 Climbing KMKE
02:09PM 44.0833 -87.8667 235° Southwest 122 140 4,500 420 Climbing KMKE
02:10PM 44.0500 -87.9000 216° Southwest 119 137 4,800 240 Climbing KMKE
02:11PM 44.0333 -87.9333 235° Southwest 125 144 5,000 60 Climbing KMKE
02:12PM 44.0039 -87.8903 230° Southwest  Level FlightAware Approximate
02:12PM 44.0167 -87.9833 245° Southwest 130 150 5,000  Level KMKE
02:13PM 43.9833 -88.0167 216° Southwest 133 153 5,000  Level KMKE
02:14PM 43.9667 -88.0500 235° Southwest 133 153 5,000  Level KMKE
02:15PM 43.9333 -88.1000 227° Southwest 134 154 5,000  Level KMKE
02:16PM 43.9167 -88.1333 235° Southwest 133 153 5,100  Climbing KMKE
02:17PM 43.8833 -88.1833 227° Southwest 133 153 5,100 -60 Level KMKE
02:18PM 43.8667 -88.2000 216° Southwest 136 157 5,000 -120 Descending KMKE
02:19PM 43.8533 -88.2292 238° Southwest 135 155 5,000  Level Minneapolis Center
02:20PM 43.8283 -88.2664 227° Southwest 133 153 5,000  Level Minneapolis Center
02:21PM 43.8019 -88.3025 225° Southwest 134 154 5,000  Level Minneapolis Center
02:22PM 43.7764 -88.3392 226° Southwest 133 153 5,100  Climbing Minneapolis Center
02:23PM 43.7500 -88.3736 223° Southwest 132 152 5,000 -60 Descending Minneapolis Center
02:24PM 43.7167 -88.4150 222° Southwest 133 153 5,000  Level Minneapolis Center
02:25PM 43.6911 -88.4514 226° Southwest 133 153 5,100  Climbing Minneapolis Center
02:26PM 43.6681 -88.4894 230° Southwest 132 152 5,100  Level Minneapolis Center
02:27PM 43.6442 -88.5278 229° Southwest 132 152 5,100 -60 Level Chicago Center
02:28PM 43.6197 -88.5653 228° Southwest 132 152 5,000 -60 Descending Chicago Center
02:29PM 43.5892 -88.6094 226° Southwest 133 153 5,000  Level Chicago Center
02:30PM 43.5647 -88.6481 229° Southwest 134 154 5,000  Level Chicago Center
02:31PM 43.5414 -88.6861 230° Southwest 132 152 5,100  Climbing Chicago Center
02:32PM 43.5175 -88.7244 229° Southwest 132 152 5,000  Descending Chicago Center
02:33PM 43.4931 -88.7617 228° Southwest 133 153 5,100  Climbing Chicago Center
02:34PM 43.4642 -88.8092 230° Southwest 134 154 5,100  Level Chicago Center
02:35PM 43.4397 -88.8464 228° Southwest 133 153 5,100  Level Chicago Center
02:36PM 43.4150 -88.8836 228° Southwest 133 153 5,100 -180 Level Chicago Center
02:37PM 43.3903 -88.9208 228° Southwest 132 152 4,800 -420 Descending Chicago Center
02:39PM 43.3628 -88.9644 229° Southwest 141 162 4,300 -420 Descending Chicago Center
02:40PM 43.3286 -89.0167 228° Southwest 149 171 4,000 -300 Descending Chicago Center
02:41PM 43.2994 -89.0575 226° Southwest 150 173 3,700 -360 Descending Chicago Center
02:42PM 43.2650 -89.0850 210° Southwest 149 171 3,300 -300 Descending Chicago Center
02:43PM 43.2367 -89.1247 226° Southwest 149 171 3,100 -120 Descending Chicago Center
02:44PM 43.2100 -89.1644 227° Southwest 145 167 3,100 -60 Level Chicago Center
02:45PM 43.1775 -89.2122 227° Southwest 143 165 3,000 -300 Descending Chicago Center
02:46PM 43.1503 -89.2508 226° Southwest 142 163 2,500 -540 Descending Chicago Center
02:47PM 43.1261 -89.2875 228° Southwest 137 158 1,900 -660 Descending Chicago Center
02:48PM 43.1336 -89.3239 286° West 126 145 1,200 -720 Descending Chicago Center